sensor_id;sensor_type;location;lat;lon;timestamp;temperature;humidity
55988;DHT22;75964;50.930;4.514;2024-02-21T00:01:39;9.80;92.30
55988;DHT22;75964;50.930;4.514;2024-02-21T00:04:05;9.80;92.30
55988;DHT22;75964;50.930;4.514;2024-02-21T00:06:31;9.80;92.30
55988;DHT22;75964;50.930;4.514;2024-02-21T00:08:57;9.70;92.40
55988;DHT22;75964;50.930;4.514;2024-02-21T00:11:23;9.60;92.60
55988;DHT22;75964;50.930;4.514;2024-02-21T00:13:49;9.60;92.70
55988;DHT22;75964;50.930;4.514;2024-02-21T00:16:16;9.70;92.50
55988;DHT22;75964;50.930;4.514;2024-02-21T00:18:42;9.70;92.50
55988;DHT22;75964;50.930;4.514;2024-02-21T00:21:07;9.60;92.70
55988;DHT22;75964;50.930;4.514;2024-02-21T00:23:33;9.60;92.60
55988;DHT22;75964;50.930;4.514;2024-02-21T00:25:59;9.50;92.80
55988;DHT22;75964;50.930;4.514;2024-02-21T00:28:24;9.70;92.80
55988;DHT22;75964;50.930;4.514;2024-02-21T00:30:50;9.60;92.90
55988;DHT22;75964;50.930;4.514;2024-02-21T00:33:19;9.60;92.90
55988;DHT22;75964;50.930;4.514;2024-02-21T00:35:45;9.60;92.70
55988;DHT22;75964;50.930;4.514;2024-02-21T00:38:10;9.70;92.60
55988;DHT22;75964;50.930;4.514;2024-02-21T00:40:36;9.70;92.40
55988;DHT22;75964;50.930;4.514;2024-02-21T00:43:02;9.70;92.30
55988;DHT22;75964;50.930;4.514;2024-02-21T00:45:28;9.70;92.20
55988;DHT22;75964;50.930;4.514;2024-02-21T00:47:53;9.80;92.30
55988;DHT22;75964;50.930;4.514;2024-02-21T00:50:19;9.70;92.10
55988;DHT22;75964;50.930;4.514;2024-02-21T00:52:45;9.80;92.10
55988;DHT22;75964;50.930;4.514;2024-02-21T00:55:11;9.80;92.20
55988;DHT22;75964;50.930;4.514;2024-02-21T00:57:36;9.80;92.20
55988;DHT22;75964;50.930;4.514;2024-02-21T01:00:03;9.60;92.10
55988;DHT22;75964;50.930;4.514;2024-02-21T01:02:29;9.80;92.00
55988;DHT22;75964;50.930;4.514;2024-02-21T01:04:57;9.80;91.80
55988;DHT22;75964;50.930;4.514;2024-02-21T01:07:23;9.70;91.80
55988;DHT22;75964;50.930;4.514;2024-02-21T01:09:48;9.70;91.80
55988;DHT22;75964;50.930;4.514;2024-02-21T01:12:16;9.70;91.90
55988;DHT22;75964;50.930;4.514;2024-02-21T01:14:42;9.80;91.50
55988;DHT22;75964;50.930;4.514;2024-02-21T01:17:07;9.80;91.40
55988;DHT22;75964;50.930;4.514;2024-02-21T01:19:33;9.80;91.40
55988;DHT22;75964;50.930;4.514;2024-02-21T01:21:59;9.80;91.40
55988;DHT22;75964;50.930;4.514;2024-02-21T01:24:25;9.70;91.60
55988;DHT22;75964;50.930;4.514;2024-02-21T01:26:50;9.70;91.50
55988;DHT22;75964;50.930;4.514;2024-02-21T01:29:16;9.80;91.50
55988;DHT22;75964;50.930;4.514;2024-02-21T01:31:41;9.80;91.40
55988;DHT22;75964;50.930;4.514;2024-02-21T01:34:07;9.80;91.40
55988;DHT22;75964;50.930;4.514;2024-02-21T01:36:33;9.70;91.20
55988;DHT22;75964;50.930;4.514;2024-02-21T01:38:59;9.70;91.30
55988;DHT22;75964;50.930;4.514;2024-02-21T01:41:25;9.80;91.40
55988;DHT22;75964;50.930;4.514;2024-02-21T01:43:50;9.60;91.50
55988;DHT22;75964;50.930;4.514;2024-02-21T01:46:16;9.60;91.70
55988;DHT22;75964;50.930;4.514;2024-02-21T01:48:42;9.60;91.70
55988;DHT22;75964;50.930;4.514;2024-02-21T01:51:09;9.80;91.50
55988;DHT22;75964;50.930;4.514;2024-02-21T01:53:38;9.70;91.60
55988;DHT22;75964;50.930;4.514;2024-02-21T01:56:06;9.60;91.60
55988;DHT22;75964;50.930;4.514;2024-02-21T01:58:33;9.60;91.90
55988;DHT22;75964;50.930;4.514;2024-02-21T02:01:02;9.50;91.70
55988;DHT22;75964;50.930;4.514;2024-02-21T02:03:28;9.50;91.80
55988;DHT22;75964;50.930;4.514;2024-02-21T02:05:55;9.60;91.90
55988;DHT22;75964;50.930;4.514;2024-02-21T02:08:21;9.50;91.80
55988;DHT22;75964;50.930;4.514;2024-02-21T02:10:49;9.40;92.10
55988;DHT22;75964;50.930;4.514;2024-02-21T02:13:15;9.50;92.00
55988;DHT22;75964;50.930;4.514;2024-02-21T02:15:48;9.50;92.10
55988;DHT22;75964;50.930;4.514;2024-02-21T02:18:16;9.50;92.00
55988;DHT22;75964;50.930;4.514;2024-02-21T02:20:45;9.60;91.90
55988;DHT22;75964;50.930;4.514;2024-02-21T02:23:25;9.50;92.10
55988;DHT22;75964;50.930;4.514;2024-02-21T02:25:51;9.50;92.00
55988;DHT22;75964;50.930;4.514;2024-02-21T02:28:18;9.40;92.20
55988;DHT22;75964;50.930;4.514;2024-02-21T02:30:44;9.40;92.30
55988;DHT22;75964;50.930;4.514;2024-02-21T02:33:10;9.60;92.20
55988;DHT22;75964;50.930;4.514;2024-02-21T02:35:35;9.40;92.30
55988;DHT22;75964;50.930;4.514;2024-02-21T02:38:02;9.40;92.70
55988;DHT22;75964;50.930;4.514;2024-02-21T02:40:28;9.40;92.60
55988;DHT22;75964;50.930;4.514;2024-02-21T02:42:54;9.40;92.60
55988;DHT22;75964;50.930;4.514;2024-02-21T02:45:23;9.40;92.60
55988;DHT22;75964;50.930;4.514;2024-02-21T02:47:49;9.40;92.70
55988;DHT22;75964;50.930;4.514;2024-02-21T02:50:15;9.30;92.60
55988;DHT22;75964;50.930;4.514;2024-02-21T02:52:41;9.40;92.60
55988;DHT22;75964;50.930;4.514;2024-02-21T02:55:07;9.50;92.40
55988;DHT22;75964;50.930;4.514;2024-02-21T02:57:33;9.60;92.10
55988;DHT22;75964;50.930;4.514;2024-02-21T02:59:58;9.70;92.10
55988;DHT22;75964;50.930;4.514;2024-02-21T03:02:24;9.80;91.60
55988;DHT22;75964;50.930;4.514;2024-02-21T03:04:50;9.60;91.90
55988;DHT22;75964;50.930;4.514;2024-02-21T03:07:16;9.50;92.10
55988;DHT22;75964;50.930;4.514;2024-02-21T03:09:42;9.40;92.50
55988;DHT22;75964;50.930;4.514;2024-02-21T03:12:11;9.30;92.70
55988;DHT22;75964;50.930;4.514;2024-02-21T03:14:36;9.30;92.60
55988;DHT22;75964;50.930;4.514;2024-02-21T03:17:02;9.40;92.40
55988;DHT22;75964;50.930;4.514;2024-02-21T03:19:29;9.50;92.10
55988;DHT22;75964;50.930;4.514;2024-02-21T03:21:54;9.40;92.30
55988;DHT22;75964;50.930;4.514;2024-02-21T03:24:20;9.30;92.20
55988;DHT22;75964;50.930;4.514;2024-02-21T03:26:46;9.40;92.20
55988;DHT22;75964;50.930;4.514;2024-02-21T03:29:16;9.40;92.20
55988;DHT22;75964;50.930;4.514;2024-02-21T03:31:42;9.50;92.00
55988;DHT22;75964;50.930;4.514;2024-02-21T03:34:09;9.50;91.90
55988;DHT22;75964;50.930;4.514;2024-02-21T03:36:35;9.40;92.00
55988;DHT22;75964;50.930;4.514;2024-02-21T03:39:01;9.50;92.00
55988;DHT22;75964;50.930;4.514;2024-02-21T03:41:26;9.40;91.90
55988;DHT22;75964;50.930;4.514;2024-02-21T03:43:52;9.40;92.10
55988;DHT22;75964;50.930;4.514;2024-02-21T03:46:18;9.50;91.70
55988;DHT22;75964;50.930;4.514;2024-02-21T03:48:43;9.30;92.00
55988;DHT22;75964;50.930;4.514;2024-02-21T03:51:09;9.40;92.10
55988;DHT22;75964;50.930;4.514;2024-02-21T03:53:35;9.40;92.10
55988;DHT22;75964;50.930;4.514;2024-02-21T03:56:02;9.30;92.10
55988;DHT22;75964;50.930;4.514;2024-02-21T03:58:29;9.20;92.20
55988;DHT22;75964;50.930;4.514;2024-02-21T04:00:55;9.40;92.20
55988;DHT22;75964;50.930;4.514;2024-02-21T04:03:20;9.40;92.00
55988;DHT22;75964;50.930;4.514;2024-02-21T04:05:46;9.30;92.10
55988;DHT22;75964;50.930;4.514;2024-02-21T04:08:12;9.30;92.10
55988;DHT22;75964;50.930;4.514;2024-02-21T04:10:38;9.30;92.10
55988;DHT22;75964;50.930;4.514;2024-02-21T04:13:05;9.30;92.40
55988;DHT22;75964;50.930;4.514;2024-02-21T04:15:31;9.40;92.30
55988;DHT22;75964;50.930;4.514;2024-02-21T04:17:57;9.40;92.20
55988;DHT22;75964;50.930;4.514;2024-02-21T04:20:23;9.30;92.30
55988;DHT22;75964;50.930;4.514;2024-02-21T04:22:48;9.30;92.40
55988;DHT22;75964;50.930;4.514;2024-02-21T04:25:14;9.30;92.30
55988;DHT22;75964;50.930;4.514;2024-02-21T04:27:40;9.30;92.30
55988;DHT22;75964;50.930;4.514;2024-02-21T04:30:07;9.30;92.30
55988;DHT22;75964;50.930;4.514;2024-02-21T04:32:33;9.30;92.20
55988;DHT22;75964;50.930;4.514;2024-02-21T04:34:58;9.30;92.30
55988;DHT22;75964;50.930;4.514;2024-02-21T04:37:24;9.20;92.50
55988;DHT22;75964;50.930;4.514;2024-02-21T04:39:50;9.20;92.60
55988;DHT22;75964;50.930;4.514;2024-02-21T04:42:16;9.30;92.30
55988;DHT22;75964;50.930;4.514;2024-02-21T04:44:41;9.20;92.40
55988;DHT22;75964;50.930;4.514;2024-02-21T04:47:07;9.20;92.60
55988;DHT22;75964;50.930;4.514;2024-02-21T04:49:34;9.20;92.50
55988;DHT22;75964;50.930;4.514;2024-02-21T04:52:00;9.20;92.40
55988;DHT22;75964;50.930;4.514;2024-02-21T04:54:26;9.30;92.40
55988;DHT22;75964;50.930;4.514;2024-02-21T04:56:51;9.30;92.40
55988;DHT22;75964;50.930;4.514;2024-02-21T04:59:17;9.20;92.50
55988;DHT22;75964;50.930;4.514;2024-02-21T05:01:43;9.20;92.50
55988;DHT22;75964;50.930;4.514;2024-02-21T05:04:09;9.30;92.40
55988;DHT22;75964;50.930;4.514;2024-02-21T05:06:38;9.20;92.50
55988;DHT22;75964;50.930;4.514;2024-02-21T05:09:04;9.10;92.60
55988;DHT22;75964;50.930;4.514;2024-02-21T05:11:30;9.10;92.40
55988;DHT22;75964;50.930;4.514;2024-02-21T05:13:56;9.30;92.40
55988;DHT22;75964;50.930;4.514;2024-02-21T05:16:22;9.20;92.40
55988;DHT22;75964;50.930;4.514;2024-02-21T05:18:47;9.20;92.30
55988;DHT22;75964;50.930;4.514;2024-02-21T05:21:13;9.30;92.30
55988;DHT22;75964;50.930;4.514;2024-02-21T05:23:39;9.30;92.10
55988;DHT22;75964;50.930;4.514;2024-02-21T05:26:05;9.30;92.10
55988;DHT22;75964;50.930;4.514;2024-02-21T05:28:31;9.20;92.20
55988;DHT22;75964;50.930;4.514;2024-02-21T05:30:57;9.20;92.40
55988;DHT22;75964;50.930;4.514;2024-02-21T05:33:24;9.30;92.40
55988;DHT22;75964;50.930;4.514;2024-02-21T05:35:50;9.20;92.60
55988;DHT22;75964;50.930;4.514;2024-02-21T05:38:16;9.20;92.70
55988;DHT22;75964;50.930;4.514;2024-02-21T05:40:42;9.20;92.80
55988;DHT22;75964;50.930;4.514;2024-02-21T05:43:08;9.10;92.90
55988;DHT22;75964;50.930;4.514;2024-02-21T05:45:34;9.10;93.10
55988;DHT22;75964;50.930;4.514;2024-02-21T05:48:00;9.10;93.10
55988;DHT22;75964;50.930;4.514;2024-02-21T05:50:26;9.00;93.20
55988;DHT22;75964;50.930;4.514;2024-02-21T05:52:54;9.00;93.20
55988;DHT22;75964;50.930;4.514;2024-02-21T05:55:21;9.10;93.20
55988;DHT22;75964;50.930;4.514;2024-02-21T05:57:46;9.10;93.10
55988;DHT22;75964;50.930;4.514;2024-02-21T06:00:13;9.20;92.80
55988;DHT22;75964;50.930;4.514;2024-02-21T06:02:39;9.30;92.60
55988;DHT22;75964;50.930;4.514;2024-02-21T06:05:06;9.30;92.40
55988;DHT22;75964;50.930;4.514;2024-02-21T06:07:33;9.30;92.40
55988;DHT22;75964;50.930;4.514;2024-02-21T06:10:00;9.20;92.70
55988;DHT22;75964;50.930;4.514;2024-02-21T06:12:26;9.20;92.70
55988;DHT22;75964;50.930;4.514;2024-02-21T06:14:52;9.20;92.80
55988;DHT22;75964;50.930;4.514;2024-02-21T06:17:17;9.20;92.80
55988;DHT22;75964;50.930;4.514;2024-02-21T06:19:44;9.20;92.70
55988;DHT22;75964;50.930;4.514;2024-02-21T06:22:11;9.30;92.60
55988;DHT22;75964;50.930;4.514;2024-02-21T06:24:37;9.20;92.60
55988;DHT22;75964;50.930;4.514;2024-02-21T06:27:06;9.30;92.50
55988;DHT22;75964;50.930;4.514;2024-02-21T06:29:32;9.30;92.50
55988;DHT22;75964;50.930;4.514;2024-02-21T06:31:59;9.20;92.40
55988;DHT22;75964;50.930;4.514;2024-02-21T06:34:25;9.30;92.40
55988;DHT22;75964;50.930;4.514;2024-02-21T06:36:51;9.40;92.20
55988;DHT22;75964;50.930;4.514;2024-02-21T06:39:16;9.40;92.20
55988;DHT22;75964;50.930;4.514;2024-02-21T06:41:42;9.30;92.10
55988;DHT22;75964;50.930;4.514;2024-02-21T06:44:08;9.30;92.20
55988;DHT22;75964;50.930;4.514;2024-02-21T06:46:35;9.40;92.30
55988;DHT22;75964;50.930;4.514;2024-02-21T06:49:02;9.40;92.00
55988;DHT22;75964;50.930;4.514;2024-02-21T06:51:29;9.40;92.10
55988;DHT22;75964;50.930;4.514;2024-02-21T06:53:55;9.40;92.10
55988;DHT22;75964;50.930;4.514;2024-02-21T06:56:22;9.40;92.00
55988;DHT22;75964;50.930;4.514;2024-02-21T06:58:52;9.40;91.90
55988;DHT22;75964;50.930;4.514;2024-02-21T07:01:18;9.50;91.90
55988;DHT22;75964;50.930;4.514;2024-02-21T07:03:43;9.40;91.90
55988;DHT22;75964;50.930;4.514;2024-02-21T07:06:09;9.30;92.20
55988;DHT22;75964;50.930;4.514;2024-02-21T07:08:34;9.30;92.40
55988;DHT22;75964;50.930;4.514;2024-02-21T07:11:00;9.30;92.70
55988;DHT22;75964;50.930;4.514;2024-02-21T07:13:26;9.20;92.70
55988;DHT22;75964;50.930;4.514;2024-02-21T07:15:51;9.30;92.90
55988;DHT22;75964;50.930;4.514;2024-02-21T07:18:17;9.20;93.00
55988;DHT22;75964;50.930;4.514;2024-02-21T07:20:43;9.20;93.20
55988;DHT22;75964;50.930;4.514;2024-02-21T07:23:09;9.20;93.40
55988;DHT22;75964;50.930;4.514;2024-02-21T07:25:34;9.30;93.50
55988;DHT22;75964;50.930;4.514;2024-02-21T07:28:00;9.30;93.50
55988;DHT22;75964;50.930;4.514;2024-02-21T07:30:26;9.30;93.70
55988;DHT22;75964;50.930;4.514;2024-02-21T07:32:51;9.20;94.00
55988;DHT22;75964;50.930;4.514;2024-02-21T07:35:18;9.10;94.50
55988;DHT22;75964;50.930;4.514;2024-02-21T07:37:43;9.10;94.70
55988;DHT22;75964;50.930;4.514;2024-02-21T07:40:13;9.10;95.00
55988;DHT22;75964;50.930;4.514;2024-02-21T07:42:40;9.10;94.90
55988;DHT22;75964;50.930;4.514;2024-02-21T07:45:09;9.00;95.40
55988;DHT22;75964;50.930;4.514;2024-02-21T07:47:36;9.20;95.50
55988;DHT22;75964;50.930;4.514;2024-02-21T07:50:02;9.10;95.60
55988;DHT22;75964;50.930;4.514;2024-02-21T07:52:28;9.10;95.70
55988;DHT22;75964;50.930;4.514;2024-02-21T07:54:53;9.10;95.90
55988;DHT22;75964;50.930;4.514;2024-02-21T07:57:19;9.20;95.90
55988;DHT22;75964;50.930;4.514;2024-02-21T07:59:45;9.20;95.60
55988;DHT22;75964;50.930;4.514;2024-02-21T08:02:13;9.30;95.60
55988;DHT22;75964;50.930;4.514;2024-02-21T08:04:39;9.20;95.40
55988;DHT22;75964;50.930;4.514;2024-02-21T08:07:05;9.20;95.70
55988;DHT22;75964;50.930;4.514;2024-02-21T08:09:30;9.10;95.80
55988;DHT22;75964;50.930;4.514;2024-02-21T08:11:56;9.10;95.90
55988;DHT22;75964;50.930;4.514;2024-02-21T08:14:23;9.20;96.20
55988;DHT22;75964;50.930;4.514;2024-02-21T08:16:50;9.20;95.60
55988;DHT22;75964;50.930;4.514;2024-02-21T08:19:16;9.30;95.40
55988;DHT22;75964;50.930;4.514;2024-02-21T08:21:42;9.20;95.30
55988;DHT22;75964;50.930;4.514;2024-02-21T08:24:08;9.20;95.30
55988;DHT22;75964;50.930;4.514;2024-02-21T08:26:33;9.20;95.50
55988;DHT22;75964;50.930;4.514;2024-02-21T08:29:01;9.20;95.40
55988;DHT22;75964;50.930;4.514;2024-02-21T08:31:27;9.20;94.90
55988;DHT22;75964;50.930;4.514;2024-02-21T08:34:00;9.30;95.00
55988;DHT22;75964;50.930;4.514;2024-02-21T08:36:36;9.20;94.60
55988;DHT22;75964;50.930;4.514;2024-02-21T08:39:03;9.10;94.60
55988;DHT22;75964;50.930;4.514;2024-02-21T08:41:31;9.20;94.60
55988;DHT22;75964;50.930;4.514;2024-02-21T08:43:57;9.10;94.80
55988;DHT22;75964;50.930;4.514;2024-02-21T08:46:23;9.10;94.70
55988;DHT22;75964;50.930;4.514;2024-02-21T08:48:50;9.10;94.50
55988;DHT22;75964;50.930;4.514;2024-02-21T08:51:19;9.00;94.40
55988;DHT22;75964;50.930;4.514;2024-02-21T08:53:45;9.20;94.30
55988;DHT22;75964;50.930;4.514;2024-02-21T08:56:11;9.20;93.80
55988;DHT22;75964;50.930;4.514;2024-02-21T08:58:38;9.20;93.70
55988;DHT22;75964;50.930;4.514;2024-02-21T09:01:05;9.20;93.40
55988;DHT22;75964;50.930;4.514;2024-02-21T09:03:38;9.30;93.20
55988;DHT22;75964;50.930;4.514;2024-02-21T09:06:07;9.30;93.20
55988;DHT22;75964;50.930;4.514;2024-02-21T09:08:35;9.30;93.60
55988;DHT22;75964;50.930;4.514;2024-02-21T09:11:01;9.40;93.00
55988;DHT22;75964;50.930;4.514;2024-02-21T09:13:27;9.30;93.20
55988;DHT22;75964;50.930;4.514;2024-02-21T09:15:52;9.50;93.00
55988;DHT22;75964;50.930;4.514;2024-02-21T09:18:18;9.50;92.80
55988;DHT22;75964;50.930;4.514;2024-02-21T09:20:44;9.50;92.50
55988;DHT22;75964;50.930;4.514;2024-02-21T09:23:10;9.50;92.60
55988;DHT22;75964;50.930;4.514;2024-02-21T09:25:35;9.50;92.80
55988;DHT22;75964;50.930;4.514;2024-02-21T09:28:07;9.60;92.30
55988;DHT22;75964;50.930;4.514;2024-02-21T09:30:33;9.70;92.50
55988;DHT22;75964;50.930;4.514;2024-02-21T09:32:59;9.60;92.30
55988;DHT22;75964;50.930;4.514;2024-02-21T09:35:26;9.70;92.30
55988;DHT22;75964;50.930;4.514;2024-02-21T09:37:53;9.80;92.20
55988;DHT22;75964;50.930;4.514;2024-02-21T09:40:19;9.80;91.90
55988;DHT22;75964;50.930;4.514;2024-02-21T09:42:47;9.80;91.90
55988;DHT22;75964;50.930;4.514;2024-02-21T09:45:23;9.80;91.80
55988;DHT22;75964;50.930;4.514;2024-02-21T09:50:38;10.00;91.70
55988;DHT22;75964;50.930;4.514;2024-02-21T09:53:06;10.00;91.40
55988;DHT22;75964;50.930;4.514;2024-02-21T09:55:33;9.90;91.50
55988;DHT22;75964;50.930;4.514;2024-02-21T09:58:01;10.00;91.80
55988;DHT22;75964;50.930;4.514;2024-02-21T10:00:27;10.00;91.80
55988;DHT22;75964;50.930;4.514;2024-02-21T10:02:54;10.10;91.30
55988;DHT22;75964;50.930;4.514;2024-02-21T10:05:20;10.10;91.30
55988;DHT22;75964;50.930;4.514;2024-02-21T10:07:46;10.20;91.10
55988;DHT22;75964;50.930;4.514;2024-02-21T10:10:12;10.20;91.40
55988;DHT22;75964;50.930;4.514;2024-02-21T10:12:51;10.20;91.20
55988;DHT22;75964;50.930;4.514;2024-02-21T10:15:20;10.20;91.40
55988;DHT22;75964;50.930;4.514;2024-02-21T10:17:57;10.20;91.10
55988;DHT22;75964;50.930;4.514;2024-02-21T10:20:23;10.30;91.00
55988;DHT22;75964;50.930;4.514;2024-02-21T10:22:49;10.30;90.80
55988;DHT22;75964;50.930;4.514;2024-02-21T10:25:14;10.30;91.10
55988;DHT22;75964;50.930;4.514;2024-02-21T10:27:40;10.40;90.90
55988;DHT22;75964;50.930;4.514;2024-02-21T10:30:13;10.40;91.00
55988;DHT22;75964;50.930;4.514;2024-02-21T10:33:08;10.40;90.90
55988;DHT22;75964;50.930;4.514;2024-02-21T10:35:34;10.40;90.50
55988;DHT22;75964;50.930;4.514;2024-02-21T10:38:00;10.40;90.80
55988;DHT22;75964;50.930;4.514;2024-02-21T10:40:27;10.50;90.50
55988;DHT22;75964;50.930;4.514;2024-02-21T10:43:00;10.60;90.60
55988;DHT22;75964;50.930;4.514;2024-02-21T10:45:30;10.60;90.40
55988;DHT22;75964;50.930;4.514;2024-02-21T10:50:28;10.70;89.70
55988;DHT22;75964;50.930;4.514;2024-02-21T10:53:25;10.70;89.70
55988;DHT22;75964;50.930;4.514;2024-02-21T10:55:58;10.80;90.10
55988;DHT22;75964;50.930;4.514;2024-02-21T10:58:24;10.70;89.90
55988;DHT22;75964;50.930;4.514;2024-02-21T11:00:51;10.70;89.80
55988;DHT22;75964;50.930;4.514;2024-02-21T11:03:17;10.70;90.00
55988;DHT22;75964;50.930;4.514;2024-02-21T11:05:44;10.90;90.20
55988;DHT22;75964;50.930;4.514;2024-02-21T11:08:11;11.00;88.90
55988;DHT22;75964;50.930;4.514;2024-02-21T11:10:37;10.80;89.10
55988;DHT22;75964;50.930;4.514;2024-02-21T11:13:07;10.80;89.10
55988;DHT22;75964;50.930;4.514;2024-02-21T11:15:34;10.90;88.80
55988;DHT22;75964;50.930;4.514;2024-02-21T11:17:59;10.90;88.10
55988;DHT22;75964;50.930;4.514;2024-02-21T11:20:32;10.90;89.00
55988;DHT22;75964;50.930;4.514;2024-02-21T11:22:59;10.90;88.40
55988;DHT22;75964;50.930;4.514;2024-02-21T11:25:26;11.00;88.50
55988;DHT22;75964;50.930;4.514;2024-02-21T11:28:08;11.10;87.50
55988;DHT22;75964;50.930;4.514;2024-02-21T11:30:37;11.10;87.20
55988;DHT22;75964;50.930;4.514;2024-02-21T11:33:05;11.10;87.10
55988;DHT22;75964;50.930;4.514;2024-02-21T11:35:32;11.10;87.00
55988;DHT22;75964;50.930;4.514;2024-02-21T11:38:08;11.10;86.40
55988;DHT22;75964;50.930;4.514;2024-02-21T11:40:34;11.10;86.20
55988;DHT22;75964;50.930;4.514;2024-02-21T11:43:00;11.30;86.40
55988;DHT22;75964;50.930;4.514;2024-02-21T11:45:26;11.20;86.80
55988;DHT22;75964;50.930;4.514;2024-02-21T11:47:52;11.00;87.60
55988;DHT22;75964;50.930;4.514;2024-02-21T11:50:18;11.00;88.40
55988;DHT22;75964;50.930;4.514;2024-02-21T11:52:44;11.00;87.20
55988;DHT22;75964;50.930;4.514;2024-02-21T11:55:11;11.00;87.20
55988;DHT22;75964;50.930;4.514;2024-02-21T11:57:39;11.00;87.40
55988;DHT22;75964;50.930;4.514;2024-02-21T12:00:18;11.00;87.20
55988;DHT22;75964;50.930;4.514;2024-02-21T12:02:48;11.00;87.20
55988;DHT22;75964;50.930;4.514;2024-02-21T12:05:15;11.10;87.20
55988;DHT22;75964;50.930;4.514;2024-02-21T12:07:41;11.20;86.70
55988;DHT22;75964;50.930;4.514;2024-02-21T12:10:10;11.20;86.10
55988;DHT22;75964;50.930;4.514;2024-02-21T12:12:37;11.10;85.30
55988;DHT22;75964;50.930;4.514;2024-02-21T12:15:06;11.20;85.20
55988;DHT22;75964;50.930;4.514;2024-02-21T12:17:33;11.30;84.50
55988;DHT22;75964;50.930;4.514;2024-02-21T12:19:59;11.20;84.20
55988;DHT22;75964;50.930;4.514;2024-02-21T12:22:25;11.20;84.30
55988;DHT22;75964;50.930;4.514;2024-02-21T12:24:51;11.10;85.30
55988;DHT22;75964;50.930;4.514;2024-02-21T12:27:17;11.00;85.20
55988;DHT22;75964;50.930;4.514;2024-02-21T12:29:42;11.10;85.50
55988;DHT22;75964;50.930;4.514;2024-02-21T12:32:08;11.00;85.70
55988;DHT22;75964;50.930;4.514;2024-02-21T12:34:34;10.90;86.20
55988;DHT22;75964;50.930;4.514;2024-02-21T12:37:02;11.00;86.80
55988;DHT22;75964;50.930;4.514;2024-02-21T12:39:28;10.90;85.70
55988;DHT22;75964;50.930;4.514;2024-02-21T12:41:55;10.80;85.90
55988;DHT22;75964;50.930;4.514;2024-02-21T12:44:22;10.90;86.20
55988;DHT22;75964;50.930;4.514;2024-02-21T12:46:49;10.80;86.50
55988;DHT22;75964;50.930;4.514;2024-02-21T12:49:18;10.80;86.40
55988;DHT22;75964;50.930;4.514;2024-02-21T12:51:44;10.90;87.50
55988;DHT22;75964;50.930;4.514;2024-02-21T12:54:12;11.00;86.60
55988;DHT22;75964;50.930;4.514;2024-02-21T12:56:38;10.90;86.80
55988;DHT22;75964;50.930;4.514;2024-02-21T12:59:05;10.90;87.10
55988;DHT22;75964;50.930;4.514;2024-02-21T13:01:33;10.90;86.80
55988;DHT22;75964;50.930;4.514;2024-02-21T13:03:58;10.90;87.30
55988;DHT22;75964;50.930;4.514;2024-02-21T13:06:26;10.80;86.50
55988;DHT22;75964;50.930;4.514;2024-02-21T13:08:52;10.90;87.30
55988;DHT22;75964;50.930;4.514;2024-02-21T13:11:17;10.80;87.10
55988;DHT22;75964;50.930;4.514;2024-02-21T13:13:43;10.90;87.10
55988;DHT22;75964;50.930;4.514;2024-02-21T13:16:09;10.90;86.80
55988;DHT22;75964;50.930;4.514;2024-02-21T13:18:35;11.00;86.90
55988;DHT22;75964;50.930;4.514;2024-02-21T13:21:04;11.00;86.40
55988;DHT22;75964;50.930;4.514;2024-02-21T13:23:30;11.10;86.20
55988;DHT22;75964;50.930;4.514;2024-02-21T13:25:56;11.10;86.40
55988;DHT22;75964;50.930;4.514;2024-02-21T13:28:21;11.20;86.00
55988;DHT22;75964;50.930;4.514;2024-02-21T13:30:47;11.30;86.60
55988;DHT22;75964;50.930;4.514;2024-02-21T13:33:13;11.20;85.80
55988;DHT22;75964;50.930;4.514;2024-02-21T13:35:39;11.20;86.30
55988;DHT22;75964;50.930;4.514;2024-02-21T13:38:05;11.00;86.40
55988;DHT22;75964;50.930;4.514;2024-02-21T13:40:31;11.00;86.60
55988;DHT22;75964;50.930;4.514;2024-02-21T13:42:56;11.00;86.70
55988;DHT22;75964;50.930;4.514;2024-02-21T13:45:22;11.00;87.20
55988;DHT22;75964;50.930;4.514;2024-02-21T13:47:48;11.00;87.00
55988;DHT22;75964;50.930;4.514;2024-02-21T13:50:14;11.00;87.10
55988;DHT22;75964;50.930;4.514;2024-02-21T13:52:40;10.90;87.60
55988;DHT22;75964;50.930;4.514;2024-02-21T13:55:06;10.90;87.70
55988;DHT22;75964;50.930;4.514;2024-02-21T13:57:37;10.90;88.30
55988;DHT22;75964;50.930;4.514;2024-02-21T14:00:04;10.90;89.50
55988;DHT22;75964;50.930;4.514;2024-02-21T14:02:30;10.80;89.30
55988;DHT22;75964;50.930;4.514;2024-02-21T14:04:56;10.70;90.00
55988;DHT22;75964;50.930;4.514;2024-02-21T14:07:22;10.90;90.10
55988;DHT22;75964;50.930;4.514;2024-02-21T14:09:48;10.70;90.60
55988;DHT22;75964;50.930;4.514;2024-02-21T14:12:14;10.70;90.40
55988;DHT22;75964;50.930;4.514;2024-02-21T14:14:43;10.60;90.90
55988;DHT22;75964;50.930;4.514;2024-02-21T14:17:09;10.60;90.90
55988;DHT22;75964;50.930;4.514;2024-02-21T14:19:35;10.60;91.10
55988;DHT22;75964;50.930;4.514;2024-02-21T14:22:00;10.50;91.10
55988;DHT22;75964;50.930;4.514;2024-02-21T14:24:28;10.50;91.70
55988;DHT22;75964;50.930;4.514;2024-02-21T14:26:54;10.40;91.90
55988;DHT22;75964;50.930;4.514;2024-02-21T14:29:20;10.40;92.20
55988;DHT22;75964;50.930;4.514;2024-02-21T14:31:46;10.40;92.20
55988;DHT22;75964;50.930;4.514;2024-02-21T14:34:12;10.40;92.60
55988;DHT22;75964;50.930;4.514;2024-02-21T14:36:38;10.40;92.80
55988;DHT22;75964;50.930;4.514;2024-02-21T14:39:03;10.30;92.90
55988;DHT22;75964;50.930;4.514;2024-02-21T14:41:30;10.30;92.60
55988;DHT22;75964;50.930;4.514;2024-02-21T14:43:55;10.20;92.60
55988;DHT22;75964;50.930;4.514;2024-02-21T14:46:25;10.20;93.20
55988;DHT22;75964;50.930;4.514;2024-02-21T14:48:54;10.10;93.20
55988;DHT22;75964;50.930;4.514;2024-02-21T14:51:20;10.10;93.10
55988;DHT22;75964;50.930;4.514;2024-02-21T14:53:45;10.00;93.40
55988;DHT22;75964;50.930;4.514;2024-02-21T14:56:15;10.00;93.30
55988;DHT22;75964;50.930;4.514;2024-02-21T14:58:41;10.00;93.50
55988;DHT22;75964;50.930;4.514;2024-02-21T15:01:10;9.90;93.40
55988;DHT22;75964;50.930;4.514;2024-02-21T15:03:35;10.00;94.00
55988;DHT22;75964;50.930;4.514;2024-02-21T15:06:04;9.90;94.00
55988;DHT22;75964;50.930;4.514;2024-02-21T15:08:30;9.90;93.90
55988;DHT22;75964;50.930;4.514;2024-02-21T15:10:55;9.90;94.10
55988;DHT22;75964;50.930;4.514;2024-02-21T15:13:21;9.90;94.20
55988;DHT22;75964;50.930;4.514;2024-02-21T15:15:48;9.80;94.50
55988;DHT22;75964;50.930;4.514;2024-02-21T15:18:16;9.70;94.50
55988;DHT22;75964;50.930;4.514;2024-02-21T15:20:42;9.80;94.60
55988;DHT22;75964;50.930;4.514;2024-02-21T15:23:08;9.80;94.60
55988;DHT22;75964;50.930;4.514;2024-02-21T15:25:34;9.80;94.70
55988;DHT22;75964;50.930;4.514;2024-02-21T15:27:59;9.80;94.70
55988;DHT22;75964;50.930;4.514;2024-02-21T15:30:25;9.80;94.40
55988;DHT22;75964;50.930;4.514;2024-02-21T15:32:52;9.80;94.60
55988;DHT22;75964;50.930;4.514;2024-02-21T15:35:21;9.70;94.70
55988;DHT22;75964;50.930;4.514;2024-02-21T15:37:46;9.70;94.70
55988;DHT22;75964;50.930;4.514;2024-02-21T15:40:13;9.70;94.70
55988;DHT22;75964;50.930;4.514;2024-02-21T15:42:40;9.70;94.60